Time;durP1;ratioP1;P1;durP2;ratioP2;P2;SDS_P1;SDS_P2;PMS_P1;PMS_P2;Temp;Humidity;BMP_temperature;BMP_pressure;BME280_temperature;BME280_humidity;BME280_pressure;Samples;Min_cycle;Max_cycle;Signal;HPM_P1;HPM_P2
2023/01/01 00:01:53;;;;;;;142.20;81.90;;;;;;;6.75;86.22;99134.43;86202;1288;99647;-77
2023/01/01 00:03:57;;;;;;;137.40;79.90;;;;;;;6.72;85.88;99133.64;86356;1288;22759;-76
2023/01/01 00:06:03;;;;;;;121.30;73.70;;;;;;;6.67;86.16;99135.35;86453;1290;22627;-76
2023/01/01 00:08:05;;;;;;;114.60;70.90;;;;;;;6.61;86.22;99138.83;86372;1288;99503;-76
2023/01/01 00:10:27;;;;;;;114.10;70.10;;;;;;;6.55;86.04;99135.70;86314;1291;22519;-75
2023/01/01 00:12:31;;;;;;;103.10;62.40;;;;;;;6.52;86.13;99140.67;86313;1287;98513;-75
2023/01/01 00:14:33;;;;;;;111.30;62.60;;;;;;;6.49;86.17;99142.87;86429;1281;26685;-76
2023/01/01 00:16:35;;;;;;;101.90;59.20;;;;;;;6.47;86.12;99146.07;86471;1286;23403;-76
2023/01/01 00:18:37;;;;;;;98.20;58.10;;;;;;;6.44;86.03;99148.92;86576;1281;99090;-77
2023/01/01 00:20:39;;;;;;;108.30;61.70;;;;;;;6.42;86.14;99146.20;86362;1288;22587;-76
2023/01/01 00:22:41;;;;;;;98.00;54.50;;;;;;;6.37;85.87;99149.84;86506;1294;22565;-76
2023/01/01 00:24:43;;;;;;;101.90;58.00;;;;;;;6.36;85.86;99154.93;86512;1291;99341;-76
2023/01/01 00:26:45;;;;;;;96.00;57.50;;;;;;;6.33;86.04;99152.41;86327;1294;22630;-75
2023/01/01 00:28:47;;;;;;;102.40;58.90;;;;;;;6.28;86.09;99155.99;86271;1296;24429;-76
2023/01/01 00:30:49;;;;;;;97.30;56.20;;;;;;;6.24;85.96;99153.67;86228;1290;98458;-79
2023/01/01 00:32:51;;;;;;;97.30;57.70;;;;;;;6.19;86.09;99153.84;86244;1298;22498;-77
2023/01/01 00:34:52;;;;;;;102.70;58.30;;;;;;;6.16;85.96;99157.75;86374;1304;25265;-76
2023/01/01 00:36:55;;;;;;;102.30;58.00;;;;;;;6.10;86.25;99159.80;86090;1291;98091;-78
2023/01/01 00:38:57;;;;;;;102.20;55.70;;;;;;;6.06;86.04;99166.40;86296;1288;22636;-76
2023/01/01 00:40:59;;;;;;;102.20;57.50;;;;;;;6.00;86.19;99164.63;86360;1297;22495;-77
2023/01/01 00:43:01;;;;;;;93.60;54.90;;;;;;;5.94;85.90;99161.23;86341;1287;99305;-76
2023/01/01 00:45:06;;;;;;;97.80;55.80;;;;;;;5.90;85.96;99157.69;86172;1290;22517;-76
2023/01/01 00:47:07;;;;;;;100.10;56.80;;;;;;;5.87;86.02;99159.17;86415;1294;22516;-77
2023/01/01 00:49:10;;;;;;;94.30;54.70;;;;;;;5.81;86.12;99154.27;86369;1287;99340;-76
2023/01/01 00:51:12;;;;;;;100.10;54.20;;;;;;;5.81;86.25;99154.45;86331;1286;22803;-76
2023/01/01 00:53:14;;;;;;;96.20;55.90;;;;;;;5.79;86.39;99155.54;86421;1286;22515;-77
2023/01/01 00:55:16;;;;;;;95.00;56.60;;;;;;;5.79;86.57;99152.58;86261;1289;99527;-77
2023/01/01 00:57:18;;;;;;;96.80;56.70;;;;;;;5.79;86.30;99151.34;86285;1287;26518;-77
2023/01/01 00:59:20;;;;;;;96.70;55.40;;;;;;;5.80;86.27;99156.91;86239;1287;22488;-75
2023/01/01 01:01:22;;;;;;;97.60;56.00;;;;;;;5.80;86.38;99159.86;86204;1293;99308;-76
2023/01/01 01:03:26;;;;;;;100.20;55.70;;;;;;;5.78;86.33;99153.98;86300;1284;25373;-74
2023/01/01 01:05:30;;;;;;;85.30;51.10;;;;;;;5.80;86.44;99150.44;86239;1291;22491;-75
2023/01/01 01:07:36;;;;;;;92.10;50.10;;;;;;;5.79;86.24;99148.38;86395;1281;97999;-77
2023/01/01 01:09:38;;;;;;;90.80;51.90;;;;;;;5.77;86.15;99149.33;86477;1287;246668;-76
2023/01/01 01:11:40;;;;;;;93.30;53.10;;;;;;;5.75;86.23;99151.30;86305;1294;22494;-76
2023/01/01 01:13:43;;;;;;;84.20;50.50;;;;;;;5.73;86.21;99144.54;86307;1291;99116;-76
2023/01/01 01:15:45;;;;;;;90.10;52.90;;;;;;;5.71;86.29;99143.37;86357;1287;26956;-76
2023/01/01 01:17:47;;;;;;;78.40;47.60;;;;;;;5.69;86.31;99142.38;86211;1290;22503;-76
2023/01/01 01:19:49;;;;;;;86.40;50.40;;;;;;;5.67;86.30;99145.92;86353;1281;99059;-76
2023/01/01 01:21:51;;;;;;;81.10;49.30;;;;;;;5.62;86.20;99147.77;86328;1284;22603;-75
2023/01/01 01:23:53;;;;;;;90.60;50.80;;;;;;;5.60;86.24;99145.55;86531;1287;22528;-75
2023/01/01 01:26:05;;;;;;;85.90;48.60;;;;;;;5.57;86.17;99141.29;86376;1284;99123;-76
2023/01/01 01:28:07;;;;;;;87.10;50.90;;;;;;;5.52;86.15;99148.20;86542;1284;24481;-76
2023/01/01 01:30:09;;;;;;;88.50;48.40;;;;;;;5.48;86.11;99146.74;86485;1280;25385;-76
2023/01/01 01:32:11;;;;;;;77.00;47.10;;;;;;;5.44;86.14;99148.93;86330;1287;99035;-75
2023/01/01 01:34:14;;;;;;;80.80;48.20;;;;;;;5.40;86.16;99147.28;86644;1287;22509;-76
2023/01/01 01:36:17;;;;;;;86.50;49.50;;;;;;;5.35;86.17;99145.83;86478;1280;22612;-75
2023/01/01 01:38:19;;;;;;;88.40;47.90;;;;;;;5.31;86.18;99142.79;86458;1285;101662;-75
2023/01/01 01:40:21;;;;;;;87.30;48.40;;;;;;;5.28;86.21;99141.81;86435;1287;22536;-75
2023/01/01 01:42:24;;;;;;;82.90;47.90;;;;;;;5.25;86.11;99141.86;86556;1287;25282;-76
2023/01/01 01:44:44;;;;;;;82.20;47.40;;;;;;;5.22;86.17;99137.07;86367;1290;98877;-76
2023/01/01 01:46:46;;;;;;;82.50;47.90;;;;;;;5.18;86.14;99140.31;86561;1287;22584;-75
2023/01/01 01:48:50;;;;;;;75.90;45.40;;;;;;;5.16;86.18;99145.39;86513;1287;98731;-76
2023/01/01 01:50:54;;;;;;;88.10;47.50;;;;;;;5.14;86.16;99144.40;86706;1284;22489;-76
2023/01/01 01:53:23;;;;;;;89.60;47.50;;;;;;;5.12;86.22;99144.46;86781;1291;22510;-75
2023/01/01 01:55:29;;;;;;;75.70;46.10;;;;;;;5.07;86.35;99141.77;86492;1281;99108;-76
2023/01/01 01:57:32;;;;;;;89.10;50.10;;;;;;;5.06;86.14;99137.98;86513;1287;22604;-76
2023/01/01 01:59:41;;;;;;;76.30;47.50;;;;;;;5.04;86.30;99137.84;86573;1284;22622;-78
2023/01/01 02:01:43;;;;;;;82.60;48.80;;;;;;;5.03;86.21;99144.51;86501;1287;98148;-76
2023/01/01 02:04:11;;;;;;;81.20;46.20;;;;;;;5.02;86.31;99142.60;86529;1281;22566;-76
2023/01/01 02:06:13;;;;;;;81.50;47.10;;;;;;;5.00;86.20;99139.50;86567;1285;22480;-75
2023/01/01 02:08:16;;;;;;;83.00;48.40;;;;;;;5.01;86.40;99140.02;86376;1287;97942;-75
2023/01/01 02:10:18;;;;;;;80.10;45.80;;;;;;;5.00;86.39;99138.09;86296;1286;22505;-77
2023/01/01 02:12:21;;;;;;;81.80;46.80;;;;;;;5.00;86.43;99139.32;86585;1287;22519;-75
2023/01/01 02:14:22;;;;;;;75.70;44.70;;;;;;;5.01;86.46;99139.48;86328;1292;99130;-77
2023/01/01 02:16:50;;;;;;;75.20;43.40;;;;;;;5.03;86.43;99141.70;86490;1290;22574;-75
2023/01/01 02:19:09;;;;;;;69.30;41.50;;;;;;;5.04;86.48;99137.15;86413;1286;99440;-75
2023/01/01 02:21:21;;;;;;;71.20;39.40;;;;;;;5.05;86.55;99133.82;86675;1281;22530;-74
2023/01/01 02:23:57;;;;;;;68.30;38.80;;;;;;;5.04;86.51;99127.75;87220;1287;24267;-76
2023/01/01 02:26:17;;;;;;;69.40;38.10;;;;;;;5.07;86.47;99130.82;86373;1286;98584;-76
2023/01/01 02:28:50;;;;;;;56.20;36.10;;;;;;;5.08;86.66;99127.46;86646;1287;22527;-76
2023/01/01 02:30:54;;;;;;;62.40;36.40;;;;;;;5.10;86.58;99122.21;86566;1290;98277;-75
2023/01/01 02:33:01;;;;;;;63.10;35.90;;;;;;;5.10;86.54;99119.59;86474;1290;26587;-74
2023/01/01 02:37:34;;;;;;;56.00;32.40;;;;;;;5.16;86.69;99121.56;86380;1280;99320;-75
2023/01/01 02:39:42;;;;;;;56.40;31.80;;;;;;;5.22;86.88;99114.80;86255;1284;24061;-75
2023/01/01 02:41:47;;;;;;;59.40;32.50;;;;;;;5.23;86.79;99110.92;86262;1291;22735;-77
2023/01/01 02:43:50;;;;;;;53.60;30.30;;;;;;;5.32;86.83;99114.70;86287;1283;98613;-76
2023/01/01 02:45:53;;;;;;;49.60;29.40;;;;;;;5.38;86.95;99111.61;86403;1288;25275;-79
2023/01/01 02:47:56;;;;;;;51.40;31.20;;;;;;;5.41;86.81;99114.84;86362;1286;22525;-76
2023/01/01 02:50:07;;;;;;;48.50;29.90;;;;;;;5.41;86.77;99111.01;86161;1301;99432;-76
2023/01/01 02:52:34;;;;;;;61.50;35.20;;;;;;;5.43;86.74;99112.02;86309;1290;22475;-76
2023/01/01 02:54:48;;;;;;;56.60;32.80;;;;;;;5.41;86.83;99110.48;86394;1287;23331;-76
2023/01/01 02:57:00;;;;;;;55.50;32.20;;;;;;;5.39;86.72;99104.42;86211;1295;23749;-76
2023/01/01 03:01:47;;;;;;;55.20;32.40;;;;;;;5.40;86.69;99107.71;86219;1285;99238;-76
2023/01/01 03:03:59;;;;;;;50.20;32.80;;;;;;;5.38;86.66;99111.27;86174;1287;22525;-75
2023/01/01 03:06:22;;;;;;;59.30;35.20;;;;;;;5.35;86.68;99109.94;86129;1288;22747;-75
2023/01/01 03:08:30;;;;;;;55.10;33.50;;;;;;;5.30;86.31;99114.05;86191;1295;97968;-76
2023/01/01 03:11:07;;;;;;;60.30;35.30;;;;;;;5.24;86.52;99110.73;86163;1286;22679;-76
2023/01/01 03:13:19;;;;;;;60.30;33.70;;;;;;;5.21;86.41;99110.81;86055;1289;99079;-76
2023/01/01 03:15:26;;;;;;;55.50;32.30;;;;;;;5.07;86.47;99096.84;86356;1286;24326;-78
2023/01/01 03:17:40;;;;;;;58.10;34.60;;;;;;;5.14;86.48;99108.36;86155;1289;22483;-76
2023/01/01 03:19:44;;;;;;;60.00;35.10;;;;;;;5.11;86.40;99112.09;86313;1289;98072;-76
2023/01/01 03:21:54;;;;;;;59.40;33.20;;;;;;;5.09;86.39;99108.64;86169;1297;22723;-75
2023/01/01 03:23:56;;;;;;;57.20;32.80;;;;;;;5.07;86.43;99111.14;86017;1291;22508;-76
2023/01/01 03:26:02;;;;;;;50.40;30.50;;;;;;;5.05;86.55;99109.61;86175;1287;97884;-76
2023/01/01 03:28:25;;;;;;;56.90;33.00;;;;;;;5.03;86.48;99110.35;86248;1289;25863;-75
2023/01/01 03:30:30;;;;;;;46.90;29.10;;;;;;;4.98;86.52;99109.27;86605;1288;23873;-76
2023/01/01 03:35:01;;;;;;;41.30;26.20;;;;;;;5.00;86.76;99118.96;86332;1287;22482;-76
2023/01/01 03:37:07;;;;;;;36.80;23.00;;;;;;;4.99;86.60;99120.21;86193;1290;98606;-76
2023/01/01 03:39:22;;;;;;;28.30;17.10;;;;;;;5.03;86.79;99122.21;86324;1310;24379;-76
2023/01/01 03:41:43;;;;;;;19.60;13.20;;;;;;;5.16;86.96;99118.91;86419;1287;24413;-75
2023/01/01 03:43:53;;;;;;;23.40;13.80;;;;;;;5.29;86.99;99120.00;86232;1287;99636;-76
2023/01/01 03:45:58;;;;;;;24.70;16.10;;;;;;;5.37;87.12;99121.90;86299;1287;22570;-77
2023/01/01 03:48:00;;;;;;;31.40;17.10;;;;;;;5.39;86.94;99118.91;86164;1291;22474;-76
2023/01/01 03:50:04;;;;;;;24.00;14.80;;;;;;;5.39;86.65;99124.98;86218;1288;99617;-76
2023/01/01 03:52:26;;;;;;;24.20;15.10;;;;;;;5.38;86.54;99123.46;86201;1290;24254;-77
2023/01/01 03:55:02;;;;;;;22.00;14.50;;;;;;;5.34;86.42;99124.06;86244;1288;22510;-76
2023/01/01 03:57:16;;;;;;;22.90;13.00;;;;;;;5.30;86.44;99120.33;86283;1295;22554;-76
2023/01/01 03:59:29;;;;;;;20.30;12.70;;;;;;;5.27;86.36;99120.41;86450;1295;22572;-77
2023/01/01 04:01:45;;;;;;;20.10;14.00;;;;;;;5.25;86.50;99120.80;86291;1287;99421;-76
2023/01/01 04:03:48;;;;;;;23.70;15.30;;;;;;;5.23;86.43;99128.51;86342;1296;24357;-77
2023/01/01 04:05:50;;;;;;;27.50;13.70;;;;;;;5.20;86.44;99123.37;86516;1294;22789;-76
2023/01/01 04:07:53;;;;;;;18.30;13.00;;;;;;;5.17;86.42;99127.44;86437;1294;99885;-76
2023/01/01 04:09:59;;;;;;;23.60;15.10;;;;;;;5.12;86.34;99129.28;86763;1289;22506;-76
2023/01/01 04:12:03;;;;;;;31.70;19.70;;;;;;;5.10;86.50;99136.48;86661;1312;23800;-76
2023/01/01 04:14:05;;;;;;;39.80;20.00;;;;;;;5.11;86.50;99136.45;86801;1294;97886;-77
2023/01/01 04:16:06;;;;;;;35.10;20.70;;;;;;;5.18;86.79;99138.75;86993;1295;23688;-75
2023/01/01 04:18:08;;;;;;;47.40;23.30;;;;;;;5.24;86.94;99134.94;86894;1290;22497;-76
2023/01/01 04:20:11;;;;;;;42.60;23.00;;;;;;;5.35;86.99;99137.98;86792;1292;99032;-76
2023/01/01 04:22:12;;;;;;;48.60;24.40;;;;;;;5.45;87.01;99144.00;86733;1297;22468;-76
2023/01/01 04:24:14;;;;;;;35.50;23.70;;;;;;;5.58;87.11;99145.26;86401;1293;24471;-76
2023/01/01 04:26:16;;;;;;;43.70;24.60;;;;;;;5.68;86.97;99139.62;86249;1291;99043;-77
2023/01/01 04:28:19;;;;;;;48.20;25.20;;;;;;;5.71;86.97;99144.76;86374;1296;24235;-76
2023/01/01 04:30:21;;;;;;;38.50;23.50;;;;;;;5.74;86.64;99138.77;86370;1286;24468;-77
2023/01/01 04:32:23;;;;;;;42.60;24.10;;;;;;;5.72;86.45;99146.13;86229;1295;98025;-75
2023/01/01 04:34:24;;;;;;;38.10;22.10;;;;;;;5.81;86.68;99145.04;86270;1293;24204;-75
2023/01/01 04:36:28;;;;;;;41.20;25.00;;;;;;;5.85;86.92;99150.34;86313;1293;25912;-76
2023/01/01 04:38:31;;;;;;;36.00;22.00;;;;;;;5.89;86.64;99143.26;86193;1294;98129;-76
2023/01/01 04:40:33;;;;;;;34.60;21.20;;;;;;;5.91;86.70;99147.88;86234;1295;24422;-76
2023/01/01 04:42:35;;;;;;;33.60;20.30;;;;;;;5.91;86.66;99145.27;86255;1287;23978;-76
2023/01/01 04:44:36;;;;;;;37.30;21.50;;;;;;;5.93;86.54;99137.02;86095;1290;98310;-76
2023/01/01 04:46:38;;;;;;;39.10;21.20;;;;;;;5.92;86.35;99136.89;86235;1313;22470;-76
2023/01/01 04:48:40;;;;;;;31.50;19.50;;;;;;;5.92;86.35;99134.79;86376;1289;22486;-76
2023/01/01 04:50:41;;;;;;;31.50;18.70;;;;;;;5.89;86.43;99129.64;86286;1287;99174;-77
2023/01/01 04:52:43;;;;;;;32.80;20.00;;;;;;;5.91;86.53;99135.16;86212;1288;23140;-77
2023/01/01 04:54:45;;;;;;;30.20;17.70;;;;;;;5.91;86.38;99132.02;86412;1287;22798;-78
2023/01/01 04:56:47;;;;;;;28.90;18.00;;;;;;;5.92;86.38;99124.31;86162;1281;98869;-77
2023/01/01 04:58:49;;;;;;;24.70;16.30;;;;;;;5.91;86.69;99128.20;86342;1288;22479;-76
2023/01/01 05:00:50;;;;;;;24.50;16.10;;;;;;;5.91;86.33;99139.54;86229;1289;22475;-77
2023/01/01 05:02:52;;;;;;;26.60;17.10;;;;;;;5.89;86.49;99140.29;86251;1289;25255;-76
2023/01/01 05:04:55;;;;;;;21.50;15.30;;;;;;;5.89;86.35;99139.25;86247;1294;22640;-78
2023/01/01 05:06:57;;;;;;;20.50;14.80;;;;;;;5.87;86.29;99131.98;86193;1280;98141;-75
2023/01/01 05:09:00;;;;;;;25.00;15.30;;;;;;;5.86;86.33;99132.17;86215;1289;24420;-76
2023/01/01 05:11:03;;;;;;;24.40;15.80;;;;;;;5.84;86.46;99141.28;86476;1290;23246;-76
2023/01/01 05:13:07;;;;;;;24.30;15.50;;;;;;;5.85;86.44;99149.48;86176;1291;99816;-76
2023/01/01 05:15:09;;;;;;;23.10;15.80;;;;;;;5.83;86.48;99160.16;86507;1282;22780;-75
2023/01/01 05:17:11;;;;;;;22.80;15.50;;;;;;;5.80;86.28;99151.51;86219;1289;22622;-76
2023/01/01 05:19:13;;;;;;;20.80;14.00;;;;;;;5.83;86.46;99154.92;86088;1288;98133;-76
2023/01/01 05:21:21;;;;;;;24.30;15.70;;;;;;;5.84;86.41;99148.62;86308;1288;23417;-77
2023/01/01 05:23:22;;;;;;;23.70;16.60;;;;;;;5.84;86.45;99152.80;86299;1312;24406;-75
2023/01/01 05:25:24;;;;;;;23.70;14.90;;;;;;;5.84;86.31;99151.93;86250;1289;98974;-76
2023/01/01 05:27:27;;;;;;;23.90;15.40;;;;;;;5.83;86.38;99157.20;86281;1287;25257;-76
2023/01/01 05:29:29;;;;;;;24.50;15.20;;;;;;;5.83;86.20;99162.07;86142;1292;23097;-76
2023/01/01 05:31:33;;;;;;;28.80;15.20;;;;;;;5.83;86.42;99159.11;86215;1291;98126;-75
2023/01/01 05:33:36;;;;;;;22.30;15.20;;;;;;;5.82;86.37;99165.93;86383;1290;22700;-77
2023/01/01 05:35:38;;;;;;;23.60;15.90;;;;;;;5.83;86.27;99161.02;86326;1288;25086;-75
2023/01/01 05:37:40;;;;;;;25.70;16.80;;;;;;;5.84;86.16;99162.75;86243;1294;98131;-76
2023/01/01 05:39:42;;;;;;;28.50;16.20;;;;;;;5.84;86.49;99158.90;86207;1294;22492;-76
2023/01/01 05:41:43;;;;;;;24.90;15.90;;;;;;;5.85;86.44;99158.02;86320;1298;24375;-75
2023/01/01 05:43:45;;;;;;;21.70;15.80;;;;;;;5.82;86.36;99151.80;86191;1284;99303;-75
2023/01/01 05:45:47;;;;;;;25.10;17.00;;;;;;;5.83;86.32;99149.34;86299;1289;22599;-76
2023/01/01 05:47:49;;;;;;;23.60;16.10;;;;;;;5.82;86.23;99155.31;86222;1290;25562;-76
2023/01/01 05:49:51;;;;;;;24.10;16.40;;;;;;;5.81;86.30;99154.61;86384;1288;99026;-76
2023/01/01 05:51:53;;;;;;;26.00;17.20;;;;;;;5.78;86.09;99153.83;86399;1290;24246;-76
2023/01/01 05:53:56;;;;;;;27.40;16.70;;;;;;;5.76;86.32;99160.50;86401;1287;22480;-76
2023/01/01 05:55:58;;;;;;;32.20;16.90;;;;;;;5.75;86.18;99168.52;86341;1288;97938;-76
2023/01/01 05:58:00;;;;;;;26.50;16.50;;;;;;;5.75;86.20;99169.95;86313;1294;22524;-78
2023/01/01 06:00:02;;;;;;;26.20;16.30;;;;;;;5.74;86.47;99174.86;86448;1288;22602;-77
2023/01/01 06:02:04;;;;;;;26.90;16.60;;;;;;;5.74;86.41;99177.12;86402;1287;97876;-77
2023/01/01 06:04:07;;;;;;;25.30;16.20;;;;;;;5.72;86.28;99180.11;86281;1288;22752;-76
2023/01/01 06:06:12;;;;;;;26.80;15.90;;;;;;;5.72;86.45;99191.81;86456;1293;24289;-76
2023/01/01 06:08:13;;;;;;;27.00;16.00;;;;;;;5.73;86.38;99197.36;86467;1284;97964;-75
2023/01/01 06:10:16;;;;;;;27.30;15.30;;;;;;;5.74;86.52;99201.53;86364;1298;22472;-77
2023/01/01 06:12:17;;;;;;;19.20;14.30;;;;;;;5.78;86.44;99210.31;86525;1287;22521;-77
2023/01/01 06:14:19;;;;;;;21.30;14.60;;;;;;;5.87;86.77;99205.03;86406;1287;99572;-76
2023/01/01 06:16:21;;;;;;;26.50;14.50;;;;;;;6.03;86.92;99210.42;86232;1284;22478;-75
2023/01/01 06:18:24;;;;;;;20.40;14.00;;;;;;;6.22;86.87;99212.55;86583;1284;22492;-76
2023/01/01 06:20:26;;;;;;;20.50;13.70;;;;;;;6.41;86.89;99208.55;86279;1288;98171;-77
2023/01/01 06:22:27;;;;;;;22.80;14.00;;;;;;;6.62;86.93;99208.31;86217;1290;22531;-77
2023/01/01 06:24:29;;;;;;;18.50;13.10;;;;;;;6.80;86.83;99213.73;86220;1290;22971;-77
2023/01/01 06:26:32;;;;;;;23.00;13.80;;;;;;;6.98;86.87;99219.65;86133;1291;97922;-76
2023/01/01 06:28:34;;;;;;;22.00;14.30;;;;;;;7.17;86.53;99230.13;86033;1290;23005;-75
2023/01/01 06:30:36;;;;;;;21.90;13.10;;;;;;;7.39;86.75;99238.52;86302;1287;22509;-77
2023/01/01 06:32:38;;;;;;;24.90;15.70;;;;;;;7.61;86.43;99237.84;86239;1297;98511;-77
2023/01/01 06:34:40;;;;;;;29.00;16.00;;;;;;;7.81;86.30;99241.77;86369;1281;23852;-76
2023/01/01 06:36:43;;;;;;;21.30;14.50;;;;;;;7.94;86.26;99239.40;86358;1287;22574;-76
2023/01/01 06:38:47;;;;;;;18.40;13.90;;;;;;;8.09;85.92;99240.67;86215;1290;97801;-76
2023/01/01 06:41:19;;;;;;;21.00;13.70;;;;;;;8.25;85.72;99238.20;86482;1280;22452;-76
2023/01/01 06:43:21;;;;;;;18.00;13.00;;;;;;;8.43;85.47;99233.02;86491;1291;98285;-77
2023/01/01 06:45:22;;;;;;;24.10;15.10;;;;;;;8.55;85.51;99234.39;86598;1281;24234;-77
2023/01/01 06:47:24;;;;;;;21.60;14.60;;;;;;;8.61;85.16;99237.83;86487;1283;25337;-75
2023/01/01 06:49:26;;;;;;;25.30;14.50;;;;;;;8.66;85.10;99252.20;86573;1298;98220;-76
2023/01/01 06:51:29;;;;;;;25.30;15.40;;;;;;;8.66;85.00;99260.06;86767;1287;22435;-78
2023/01/01 06:53:32;;;;;;;32.00;15.70;;;;;;;8.67;84.66;99261.42;86345;1284;22890;-77
2023/01/01 06:55:34;;;;;;;29.10;16.10;;;;;;;8.66;84.79;99259.73;86593;1288;98088;-77
2023/01/01 06:57:36;;;;;;;26.00;16.00;;;;;;;8.63;84.71;99261.95;86592;1288;22481;-77
2023/01/01 06:59:38;;;;;;;26.10;16.10;;;;;;;8.59;84.72;99261.02;86538;1290;22471;-75
2023/01/01 07:01:39;;;;;;;25.00;16.80;;;;;;;8.54;84.85;99262.42;86433;1287;99748;-78
2023/01/01 07:03:42;;;;;;;35.50;16.70;;;;;;;8.50;84.56;99265.05;86257;1291;22724;-78
2023/01/01 07:05:44;;;;;;;24.90;15.50;;;;;;;8.46;84.81;99260.27;86445;1284;23259;-77
2023/01/01 07:07:46;;;;;;;25.40;14.80;;;;;;;8.42;84.60;99264.73;86120;1291;98003;-77
2023/01/01 07:09:48;;;;;;;22.60;14.50;;;;;;;8.38;84.85;99269.10;86445;1288;22534;-77
2023/01/01 07:11:50;;;;;;;19.60;13.70;;;;;;;8.35;84.90;99264.99;86452;1290;23036;-76
2023/01/01 07:13:52;;;;;;;21.50;14.00;;;;;;;8.31;84.68;99268.10;86166;1289;99178;-77
2023/01/01 07:15:54;;;;;;;23.40;15.80;;;;;;;8.23;84.65;99267.83;86381;1286;22462;-77
2023/01/01 07:17:56;;;;;;;24.10;15.50;;;;;;;8.14;84.64;99267.61;86383;1289;24245;-77
2023/01/01 07:19:57;;;;;;;18.40;13.90;;;;;;;8.16;84.68;99290.14;86298;1290;98297;-78
2023/01/01 07:21:59;;;;;;;23.90;16.80;;;;;;;8.10;84.65;99288.95;86137;1289;22577;-77
2023/01/01 07:24:04;;;;;;;24.90;15.10;;;;;;;8.01;84.66;99293.94;86376;1288;22600;-77
2023/01/01 07:26:08;;;;;;;24.20;14.80;;;;;;;7.90;84.74;99295.34;86373;1281;99196;-77
2023/01/01 07:28:11;;;;;;;24.20;15.80;;;;;;;7.87;84.58;99304.36;86279;1291;24361;-77
2023/01/01 07:30:13;;;;;;;18.70;14.50;;;;;;;7.82;84.73;99305.23;86353;1288;24368;-77
2023/01/01 07:32:14;;;;;;;23.70;15.70;;;;;;;7.74;84.84;99295.88;86280;1283;98074;-76
2023/01/01 07:34:21;;;;;;;25.40;15.60;;;;;;;7.71;84.68;99302.42;86353;1288;25309;-77
2023/01/01 07:36:23;;;;;;;19.60;14.40;;;;;;;7.62;84.86;99301.80;86120;1289;22896;-77
2023/01/01 07:38:24;;;;;;;28.90;16.00;;;;;;;7.58;84.81;99311.23;86212;1291;99183;-77
2023/01/01 07:40:26;;;;;;;24.20;16.00;;;;;;;7.52;84.54;99314.90;86357;1287;25376;-76
2023/01/01 07:42:28;;;;;;;26.70;15.80;;;;;;;7.48;84.56;99315.89;86302;1289;22613;-78
2023/01/01 07:44:30;;;;;;;25.90;16.00;;;;;;;7.45;84.80;99321.05;86270;1281;99201;-79
2023/01/01 07:46:34;;;;;;;23.90;16.60;;;;;;;7.41;85.13;99326.59;86442;1280;26019;-77
2023/01/01 07:48:36;;;;;;;23.50;15.40;;;;;;;7.38;85.05;99332.45;86538;1287;22497;-77
2023/01/01 07:50:38;;;;;;;30.40;18.40;;;;;;;7.36;84.72;99336.54;86445;1285;97882;-77
2023/01/01 07:52:39;;;;;;;32.00;18.30;;;;;;;7.31;84.74;99330.20;86471;1286;24239;-77
2023/01/01 07:54:41;;;;;;;38.90;18.30;;;;;;;7.27;84.82;99335.04;86672;1283;22732;-77
2023/01/01 07:56:43;;;;;;;25.30;17.10;;;;;;;7.25;85.04;99334.05;86418;1281;98728;-77
2023/01/01 07:58:44;;;;;;;30.10;17.20;;;;;;;7.23;84.91;99336.02;86559;1287;22546;-77
2023/01/01 08:00:47;;;;;;;24.80;17.60;;;;;;;7.22;84.65;99343.40;86261;1287;22519;-75
2023/01/01 08:02:49;;;;;;;27.50;17.10;;;;;;;7.21;84.74;99343.41;86311;1287;98337;-76
2023/01/01 08:04:50;;;;;;;29.70;17.40;;;;;;;7.20;84.91;99341.71;86551;1282;22549;-76
2023/01/01 08:06:53;;;;;;;35.10;17.40;;;;;;;7.19;85.05;99341.39;86549;1287;22522;-77
2023/01/01 08:08:55;;;;;;;26.00;17.40;;;;;;;7.19;84.95;99338.93;86734;1310;98279;-78
2023/01/01 08:11:00;;;;;;;26.90;17.30;;;;;;;7.19;85.07;99338.95;87067;1284;23221;-77
2023/01/01 08:13:04;;;;;;;26.60;16.60;;;;;;;7.21;85.05;99340.98;86829;1287;98357;-77
2023/01/01 08:15:07;;;;;;;30.00;17.60;;;;;;;7.21;85.35;99342.38;86725;1288;22489;-77
2023/01/01 08:17:08;;;;;;;30.70;16.90;;;;;;;7.22;84.92;99349.15;86538;1280;22488;-77
2023/01/01 08:19:10;;;;;;;29.90;17.20;;;;;;;7.24;85.13;99354.34;86410;1287;98554;-76
2023/01/01 08:21:12;;;;;;;31.50;17.20;;;;;;;7.23;85.19;99349.11;86538;1288;26418;-77
2023/01/01 08:23:14;;;;;;;24.90;15.20;;;;;;;7.29;85.15;99354.38;86612;1288;26481;-77
2023/01/01 08:25:15;;;;;;;26.50;16.40;;;;;;;7.30;84.98;99355.38;86556;1287;97941;-77
2023/01/01 08:27:17;;;;;;;32.30;15.80;;;;;;;7.33;85.44;99355.31;86513;1297;22493;-77
2023/01/01 08:29:20;;;;;;;25.80;15.20;;;;;;;7.35;84.92;99354.55;86616;1284;23705;-78
2023/01/01 08:31:22;;;;;;;27.10;16.00;;;;;;;7.38;85.13;99357.09;86427;1290;99079;-79
2023/01/01 08:33:25;;;;;;;22.70;15.60;;;;;;;7.41;85.11;99361.39;86410;1290;25699;-77
2023/01/01 08:35:26;;;;;;;23.70;16.20;;;;;;;7.44;85.35;99361.66;86320;1283;22503;-76
2023/01/01 08:37:28;;;;;;;24.80;15.70;;;;;;;7.48;85.26;99368.52;86444;1287;98366;-77
2023/01/01 08:39:30;;;;;;;22.80;14.30;;;;;;;7.52;84.88;99368.21;86416;1289;23776;-77
2023/01/01 08:41:34;;;;;;;26.30;15.60;;;;;;;7.57;85.21;99370.00;86768;1281;22502;-79
2023/01/01 08:43:35;;;;;;;28.70;16.40;;;;;;;7.63;85.39;99384.17;86446;1288;98080;-78
2023/01/01 08:45:37;;;;;;;23.00;15.20;;;;;;;7.70;85.39;99385.89;86280;1281;22462;-77
2023/01/01 08:47:39;;;;;;;21.30;15.80;;;;;;;7.76;85.43;99381.69;86389;1290;22499;-77
2023/01/01 08:49:40;;;;;;;21.10;14.20;;;;;;;7.81;85.34;99386.09;86399;1288;99069;-77
2023/01/01 08:51:42;;;;;;;23.60;14.30;;;;;;;7.89;85.41;99393.35;86319;1289;22534;-77
2023/01/01 08:53:44;;;;;;;22.50;13.70;;;;;;;7.97;85.11;99397.48;86369;1290;25876;-77
2023/01/01 08:55:57;;;;;;;23.40;14.80;;;;;;;8.03;84.98;99395.92;86342;1291;98106;-78
2023/01/01 08:57:59;;;;;;;23.10;14.00;;;;;;;8.10;84.98;99395.54;86379;1290;24408;-76
2023/01/01 09:00:00;;;;;;;20.10;14.60;;;;;;;8.14;85.13;99391.17;86244;1289;22619;-78
2023/01/01 09:02:03;;;;;;;23.40;14.90;;;;;;;8.18;85.37;99394.21;86232;1290;98340;-78
2023/01/01 09:04:07;;;;;;;22.90;14.70;;;;;;;8.21;85.17;99394.48;86217;1281;22728;-76
2023/01/01 09:06:08;;;;;;;20.10;14.30;;;;;;;8.26;84.92;99396.95;86358;1287;22531;-75
2023/01/01 09:08:11;;;;;;;23.00;14.60;;;;;;;8.32;84.96;99402.88;86311;1280;98250;-77
2023/01/01 09:10:13;;;;;;;21.50;14.30;;;;;;;8.38;84.90;99407.41;86326;1288;23118;-76
2023/01/01 09:12:15;;;;;;;23.70;14.70;;;;;;;8.43;85.28;99407.96;86497;1280;22553;-78
2023/01/01 09:14:17;;;;;;;23.70;14.80;;;;;;;8.48;84.69;99410.46;86083;1296;98018;-77
2023/01/01 09:16:20;;;;;;;22.00;13.60;;;;;;;8.54;85.11;99409.92;86184;1288;22950;-77
2023/01/01 09:18:22;;;;;;;22.20;14.00;;;;;;;8.62;85.02;99409.45;86347;1288;22487;-78
2023/01/01 09:20:24;;;;;;;21.10;14.40;;;;;;;8.67;85.06;99405.77;86078;1288;99758;-78
2023/01/01 09:22:25;;;;;;;23.50;14.40;;;;;;;8.73;85.12;99404.73;86234;1281;22592;-77
2023/01/01 09:24:27;;;;;;;22.30;14.30;;;;;;;8.78;84.93;99404.05;86135;1280;23300;-76
2023/01/01 09:26:29;;;;;;;19.90;12.50;;;;;;;8.82;84.90;99403.89;85921;1280;98201;-75
2023/01/01 09:28:31;;;;;;;18.10;12.80;;;;;;;8.86;84.90;99401.47;86083;1286;25529;-77
2023/01/01 09:30:34;;;;;;;17.60;12.60;;;;;;;8.90;84.89;99403.44;86105;1285;24290;-76
2023/01/01 09:32:35;;;;;;;15.50;11.70;;;;;;;8.97;84.90;99400.75;85838;1281;99428;-77
2023/01/01 09:34:37;;;;;;;22.80;13.60;;;;;;;9.10;84.96;99392.94;85861;1288;22434;-76
2023/01/01 09:36:40;;;;;;;21.50;14.30;;;;;;;9.20;84.79;99394.35;86046;1281;22502;-76
2023/01/01 09:38:42;;;;;;;26.50;15.30;;;;;;;9.26;84.60;99393.42;85917;1279;100232;-74
2023/01/01 09:41:06;;;;;;;22.60;15.60;;;;;;;9.32;84.80;99384.41;86102;1286;22474;-75
2023/01/01 09:43:41;;;;;;;26.10;15.90;;;;;;;9.43;84.77;99382.67;85789;1281;99240;-75
2023/01/01 09:46:00;;;;;;;24.50;16.10;;;;;;;9.54;84.73;99379.42;85915;1286;22671;-74
2023/01/01 09:48:10;;;;;;;25.40;16.60;;;;;;;9.62;84.64;99375.27;86046;1285;22892;-75